Terminal Aerodrome Forecast
Issued by NWS

Home | Current Version | Previous Version | Graphics & Text | Print | Product List | Glossary On
Versions: 1 2 3 4 5 6 7 8 9 10 11 12
000
FTUS45 KGGW 271700
TAFOLF
TAF
KOLF 271722Z 2718/2818 27017G25KT P6SM -SHRA BKN025
     FM272100 28021G29KT P6SM VCSH OVC025
     FM280200 30014KT P6SM OVC060=

USA.gov is the U.S. government's official web portal to all federal, state and local government web resources and services.